PGT1TS LTAI-LTFJ
Flight info
| Callsign | PGT1TS |
|---|---|
| Flight time | 0h 50m |
| Altitude | 32000 |
| Route | EKSEN1K/18L EKSEN UL610 ETAMP |
| Aircraft | A320/M-SDE3FGHIRWY/LB1 |
Departure
| Time | 2026-05-05 15:45 |
|---|---|
| Airport | Antalya International Airport (LTAI) |
Arrival
| Time | 2026-05-05 16:35 |
|---|---|
| Airport | Istanbul Sabiha Gökçen International Airport (LTFJ) |
| Time | Latitude | Longitude | Altitude | Speed | Heading |
|---|---|---|---|---|---|
| 2026-05-05 15:26 | 36.91339 | 30.80074 | 204 ft | 0 kts | 96° |
| 2026-05-05 15:32 | 36.91340 | 30.80067 | 202 ft | 2 kts | 96° |
| 2026-05-05 15:32 | 36.91341 | 30.80047 | 202 ft | 2 kts | 97° |
| 2026-05-05 15:33 | 36.91344 | 30.80026 | 200 ft | 2 kts | 98° |
| 2026-05-05 15:33 | 36.91346 | 30.80006 | 201 ft | 2 kts | 99° |
| 2026-05-05 15:33 | 36.91349 | 30.79986 | 205 ft | 2 kts | 100° |
| 2026-05-05 15:33 | 36.91352 | 30.79966 | 206 ft | 2 kts | 102° |
| 2026-05-05 15:34 | 36.91355 | 30.79946 | 203 ft | 2 kts | 106° |
| 2026-05-05 15:34 | 36.91361 | 30.79926 | 196 ft | 2 kts | 116° |
| 2026-05-05 15:34 | 36.91369 | 30.79908 | 193 ft | 2 kts | 149° |
| 2026-05-05 15:34 | 36.91381 | 30.79903 | 202 ft | 1 kts | 181° |
| 2026-05-05 15:35 | 36.91383 | 30.79903 | 203 ft | 0 kts | 181° |
| 2026-05-05 15:37 | 36.91379 | 30.79903 | 201 ft | 1 kts | 181° |
| 2026-05-05 15:37 | 36.91372 | 30.79902 | 195 ft | 4 kts | 181° |
| 2026-05-05 15:37 | 36.91323 | 30.79897 | 199 ft | 10 kts | 186° |
| 2026-05-05 15:38 | 36.91245 | 30.79886 | 191 ft | 12 kts | 187° |
| 2026-05-05 15:38 | 36.91160 | 30.79874 | 191 ft | 13 kts | 186° |
| 2026-05-05 15:38 | 36.91066 | 30.79862 | 198 ft | 14 kts | 186° |
| 2026-05-05 15:38 | 36.90965 | 30.79848 | 194 ft | 15 kts | 186° |
| 2026-05-05 15:39 | 36.90885 | 30.79772 | 197 ft | 15 kts | 227° |
| 2026-05-05 15:39 | 36.90782 | 30.79733 | 199 ft | 16 kts | 184° |
| 2026-05-05 15:39 | 36.90668 | 30.79718 | 201 ft | 17 kts | 186° |
| 2026-05-05 15:39 | 36.90548 | 30.79702 | 191 ft | 18 kts | 186° |
| 2026-05-05 15:40 | 36.90430 | 30.79713 | 198 ft | 17 kts | 139° |
| 2026-05-05 15:40 | 36.90391 | 30.79847 | 191 ft | 17 kts | 96° |
| 2026-05-05 15:40 | 36.90379 | 30.79997 | 197 ft | 18 kts | 97° |
| 2026-05-05 15:40 | 36.90364 | 30.80140 | 192 ft | 19 kts | 97° |
| 2026-05-05 15:41 | 36.90349 | 30.80310 | 192 ft | 20 kts | 97° |
| 2026-05-05 15:41 | 36.90334 | 30.80489 | 192 ft | 21 kts | 95° |
| 2026-05-05 15:41 | 36.90317 | 30.80678 | 192 ft | 22 kts | 96° |
| 2026-05-05 15:41 | 36.90397 | 30.80805 | 191 ft | 20 kts | 10° |
| 2026-05-05 15:42 | 36.90526 | 30.80821 | 194 ft | 18 kts | 7° |
| 2026-05-05 15:42 | 36.90643 | 30.80839 | 191 ft | 16 kts | 6° |
| 2026-05-05 15:42 | 36.90748 | 30.80854 | 191 ft | 14 kts | 6° |
| 2026-05-05 15:42 | 36.90838 | 30.80865 | 196 ft | 12 kts | 6° |
| 2026-05-05 15:43 | 36.90916 | 30.80876 | 192 ft | 11 kts | 6° |
| 2026-05-05 15:43 | 36.90978 | 30.80903 | 206 ft | 9 kts | 54° |
| 2026-05-05 15:43 | 36.90983 | 30.80995 | 199 ft | 11 kts | 97° |
| 2026-05-05 15:43 | 36.90974 | 30.81086 | 204 ft | 9 kts | 100° |
| 2026-05-05 15:44 | 36.90927 | 30.81113 | 191 ft | 10 kts | 184° |
| 2026-05-05 15:44 | 36.90646 | 30.81075 | 194 ft | 75 kts | 186° |
| 2026-05-05 15:44 | 36.89937 | 30.80977 | 196 ft | 130 kts | 186° |
| 2026-05-05 15:44 | 36.88890 | 30.80835 | 259 ft | 167 kts | 186° |
| 2026-05-05 15:45 | 36.87739 | 30.80736 | 941 ft | 166 kts | 178° |
| 2026-05-05 15:45 | 36.86588 | 30.80896 | 1711 ft | 167 kts | 172° |
| 2026-05-05 15:45 | 36.85476 | 30.81122 | 2103 ft | 152 kts | 171° |
| 2026-05-05 15:45 | 36.84388 | 30.81347 | 2406 ft | 169 kts | 170° |
| 2026-05-05 15:46 | 36.83158 | 30.81599 | 2710 ft | 190 kts | 170° |
| 2026-05-05 15:46 | 36.81764 | 30.81875 | 2944 ft | 213 kts | 171° |
| 2026-05-05 15:46 | 36.80226 | 30.82182 | 3308 ft | 230 kts | 167° |
| 2026-05-05 15:46 | 36.78709 | 30.82906 | 3823 ft | 245 kts | 153° |
| 2026-05-05 15:47 | 36.77097 | 30.83896 | 4145 ft | 269 kts | 148° |
| 2026-05-05 15:47 | 36.76100 | 30.84828 | 4549 ft | 274 kts | 131° |
| 2026-05-05 15:47 | 36.74941 | 30.87624 | 5549 ft | 275 kts | 94° |
| 2026-05-05 15:47 | 36.75076 | 30.89967 | 6324 ft | 272 kts | 68° |
| 2026-05-05 15:48 | 36.76035 | 30.91967 | 7085 ft | 269 kts | 41° |
| 2026-05-05 15:48 | 36.77583 | 30.93223 | 7838 ft | 268 kts | 17° |
| 2026-05-05 15:48 | 36.79419 | 30.93508 | 8598 ft | 269 kts | 352° |
| 2026-05-05 15:48 | 36.81273 | 30.93103 | 9373 ft | 272 kts | 348° |
| 2026-05-05 15:49 | 36.83121 | 30.92654 | 10106 ft | 276 kts | 348° |
| 2026-05-05 15:49 | 36.85060 | 30.92178 | 10471 ft | 295 kts | 348° |
| 2026-05-05 15:49 | 36.87159 | 30.91664 | 10657 ft | 318 kts | 348° |
| 2026-05-05 15:49 | 36.89399 | 30.91122 | 10961 ft | 336 kts | 348° |
| 2026-05-05 15:50 | 36.91711 | 30.90570 | 11540 ft | 342 kts | 348° |
| 2026-05-05 15:50 | 36.94064 | 30.90011 | 12196 ft | 347 kts | 348° |
| 2026-05-05 15:50 | 36.95654 | 30.89634 | 12642 ft | 350 kts | 348° |
| 2026-05-05 15:50 | 36.98057 | 30.89062 | 13291 ft | 354 kts | 348° |
| 2026-05-05 15:51 | 37.00495 | 30.88478 | 13916 ft | 359 kts | 348° |
| 2026-05-05 15:51 | 37.02959 | 30.87888 | 14497 ft | 363 kts | 348° |
| 2026-05-05 15:51 | 37.05447 | 30.87292 | 15101 ft | 366 kts | 348° |
| 2026-05-05 15:51 | 37.07967 | 30.86689 | 15694 ft | 369 kts | 348° |
| 2026-05-05 15:52 | 37.10494 | 30.86082 | 16296 ft | 372 kts | 347° |
| 2026-05-05 15:52 | 37.13047 | 30.85467 | 16890 ft | 374 kts | 347° |
| 2026-05-05 15:52 | 37.15615 | 30.84849 | 17472 ft | 377 kts | 347° |
| 2026-05-05 15:52 | 37.18208 | 30.84225 | 18049 ft | 380 kts | 347° |
| 2026-05-05 15:53 | 37.20816 | 30.83597 | 18559 ft | 383 kts | 347° |
| 2026-05-05 15:53 | 37.23431 | 30.82968 | 19065 ft | 385 kts | 347° |
| 2026-05-05 15:53 | 37.26077 | 30.82331 | 19579 ft | 387 kts | 347° |
| 2026-05-05 15:53 | 37.28727 | 30.81694 | 20098 ft | 388 kts | 347° |
| 2026-05-05 15:54 | 37.31387 | 30.81054 | 20599 ft | 390 kts | 346° |
| 2026-05-05 15:54 | 37.34055 | 30.80407 | 21085 ft | 392 kts | 346° |
| 2026-05-05 15:54 | 37.36732 | 30.79759 | 21555 ft | 393 kts | 346° |
| 2026-05-05 15:54 | 37.39436 | 30.79107 | 22038 ft | 395 kts | 346° |
| 2026-05-05 15:55 | 37.42148 | 30.78454 | 22508 ft | 397 kts | 346° |
| 2026-05-05 15:55 | 37.44864 | 30.77798 | 22966 ft | 399 kts | 346° |
| 2026-05-05 15:55 | 37.47595 | 30.77138 | 23430 ft | 401 kts | 346° |
| 2026-05-05 15:55 | 37.50339 | 30.76475 | 23833 ft | 403 kts | 346° |
| 2026-05-05 15:56 | 37.53105 | 30.75805 | 24188 ft | 405 kts | 346° |
| 2026-05-05 15:56 | 37.55879 | 30.75130 | 24529 ft | 407 kts | 346° |
| 2026-05-05 15:56 | 37.58668 | 30.74450 | 24870 ft | 409 kts | 346° |
| 2026-05-05 15:56 | 37.61472 | 30.73769 | 25201 ft | 411 kts | 346° |
| 2026-05-05 15:57 | 37.64279 | 30.73086 | 25517 ft | 412 kts | 346° |
| 2026-05-05 15:57 | 37.67104 | 30.72396 | 25854 ft | 415 kts | 345° |
| 2026-05-05 15:57 | 37.69949 | 30.71696 | 26180 ft | 417 kts | 345° |
| 2026-05-05 15:57 | 37.72771 | 30.71007 | 26505 ft | 419 kts | 346° |
| 2026-05-05 15:58 | 37.75646 | 30.70310 | 26835 ft | 421 kts | 346° |
| 2026-05-05 15:58 | 37.78525 | 30.69609 | 27170 ft | 423 kts | 345° |
| 2026-05-05 15:58 | 37.81431 | 30.68894 | 27493 ft | 425 kts | 345° |
| 2026-05-05 15:58 | 37.84340 | 30.68175 | 27799 ft | 427 kts | 345° |
| 2026-05-05 15:59 | 37.87256 | 30.67454 | 28107 ft | 429 kts | 345° |
| 2026-05-05 15:59 | 37.90126 | 30.66417 | 28386 ft | 427 kts | 336° |
| 2026-05-05 15:59 | 37.92864 | 30.64960 | 28659 ft | 427 kts | 334° |
| 2026-05-05 15:59 | 37.95594 | 30.63467 | 28937 ft | 429 kts | 333° |
| 2026-05-05 16:00 | 37.98344 | 30.61959 | 29200 ft | 431 kts | 334° |
| 2026-05-05 16:00 | 38.01099 | 30.60449 | 29456 ft | 433 kts | 334° |
| 2026-05-05 16:00 | 38.03880 | 30.58924 | 29716 ft | 435 kts | 334° |
| 2026-05-05 16:00 | 38.06645 | 30.57407 | 30068 ft | 434 kts | 334° |
| 2026-05-05 16:01 | 38.09391 | 30.55908 | 30847 ft | 419 kts | 334° |
| 2026-05-05 16:01 | 38.12039 | 30.54463 | 31576 ft | 412 kts | 334° |
| 2026-05-05 16:01 | 38.14682 | 30.53013 | 31727 ft | 416 kts | 334° |
| 2026-05-05 16:01 | 38.17352 | 30.51544 | 31856 ft | 420 kts | 334° |
| 2026-05-05 16:02 | 38.20037 | 30.50066 | 32009 ft | 424 kts | 334° |
| 2026-05-05 16:02 | 38.25493 | 30.47061 | 32056 ft | 428 kts | 334° |
| 2026-05-05 16:03 | 38.30951 | 30.44046 | 32059 ft | 428 kts | 334° |
| 2026-05-05 16:03 | 38.36386 | 30.41047 | 32060 ft | 429 kts | 335° |
| 2026-05-05 16:04 | 38.41867 | 30.38020 | 32054 ft | 429 kts | 335° |
| 2026-05-05 16:04 | 38.47341 | 30.34990 | 32048 ft | 429 kts | 335° |
| 2026-05-05 16:05 | 38.52817 | 30.31959 | 32056 ft | 429 kts | 335° |
| 2026-05-05 16:05 | 38.58293 | 30.28916 | 32070 ft | 429 kts | 335° |
| 2026-05-05 16:06 | 38.63782 | 30.25860 | 32058 ft | 430 kts | 335° |
| 2026-05-05 16:06 | 38.69265 | 30.22803 | 32062 ft | 430 kts | 335° |
| 2026-05-05 16:07 | 38.74725 | 30.19761 | 32061 ft | 430 kts | 335° |
| 2026-05-05 16:07 | 38.80239 | 30.16684 | 32064 ft | 430 kts | 335° |
| 2026-05-05 16:08 | 38.85692 | 30.13641 | 32059 ft | 430 kts | 335° |
| 2026-05-05 16:08 | 38.91190 | 30.10567 | 32070 ft | 430 kts | 335° |
| 2026-05-05 16:09 | 38.96662 | 30.07489 | 32064 ft | 430 kts | 335° |
| 2026-05-05 16:09 | 39.02157 | 30.04381 | 32064 ft | 430 kts | 335° |
| 2026-05-05 16:10 | 39.07637 | 30.01280 | 32064 ft | 431 kts | 336° |
| 2026-05-05 16:10 | 39.13136 | 29.98184 | 32070 ft | 431 kts | 336° |
| 2026-05-05 16:11 | 39.18598 | 29.95108 | 32071 ft | 431 kts | 336° |
| 2026-05-05 16:11 | 39.26859 | 29.90441 | 30923 ft | 437 kts | 336° |
| 2026-05-05 16:12 | 39.29646 | 29.88862 | 29925 ft | 442 kts | 336° |
| 2026-05-05 16:12 | 39.35233 | 29.85717 | 28576 ft | 432 kts | 337° |
| 2026-05-05 16:13 | 39.43377 | 29.81142 | 26790 ft | 418 kts | 337° |
| 2026-05-05 16:13 | 39.46026 | 29.79652 | 26215 ft | 414 kts | 337° |
| 2026-05-05 16:13 | 39.48656 | 29.78172 | 25643 ft | 411 kts | 337° |
| 2026-05-05 16:14 | 39.53857 | 29.75235 | 24963 ft | 406 kts | 336° |
| 2026-05-05 16:14 | 39.59061 | 29.72313 | 23873 ft | 398 kts | 340° |
| 2026-05-05 16:15 | 39.64157 | 29.70337 | 23699 ft | 368 kts | 343° |
| 2026-05-05 16:15 | 39.68877 | 29.68556 | 23379 ft | 365 kts | 344° |
| 2026-05-05 16:16 | 39.73772 | 29.66708 | 22437 ft | 365 kts | 343° |
| 2026-05-05 16:16 | 39.78616 | 29.64876 | 21557 ft | 360 kts | 343° |
| 2026-05-05 16:17 | 39.83387 | 29.63074 | 20710 ft | 355 kts | 343° |
| 2026-05-05 16:17 | 39.85770 | 29.62173 | 20294 ft | 352 kts | 344° |
| 2026-05-05 16:18 | 39.90446 | 29.60397 | 19449 ft | 348 kts | 343° |
| 2026-05-05 16:18 | 39.92762 | 29.59515 | 19022 ft | 346 kts | 343° |
| 2026-05-05 16:18 | 39.97347 | 29.57769 | 18135 ft | 344 kts | 343° |
| 2026-05-05 16:19 | 39.99625 | 29.56901 | 17682 ft | 342 kts | 343° |
| 2026-05-05 16:19 | 40.01926 | 29.56021 | 17234 ft | 339 kts | 343° |
| 2026-05-05 16:19 | 40.06424 | 29.54300 | 16344 ft | 336 kts | 344° |
| 2026-05-05 16:20 | 40.10896 | 29.52593 | 15448 ft | 333 kts | 344° |
| 2026-05-05 16:20 | 40.15326 | 29.50898 | 14574 ft | 330 kts | 344° |
| 2026-05-05 16:21 | 40.19294 | 29.48244 | 14352 ft | 319 kts | 330° |
| 2026-05-05 16:22 | 40.24954 | 29.43712 | 14157 ft | 317 kts | 330° |
| 2026-05-05 16:22 | 40.28716 | 29.40684 | 13913 ft | 316 kts | 330° |
| 2026-05-05 16:23 | 40.32458 | 29.37677 | 13041 ft | 314 kts | 330° |
| 2026-05-05 16:23 | 40.34311 | 29.36186 | 12620 ft | 313 kts | 330° |
| 2026-05-05 16:23 | 40.38005 | 29.33206 | 11670 ft | 311 kts | 330° |
| 2026-05-05 16:24 | 40.39850 | 29.31718 | 11211 ft | 312 kts | 330° |
| 2026-05-05 16:24 | 40.41702 | 29.30222 | 10755 ft | 311 kts | 330° |
| 2026-05-05 16:24 | 40.45282 | 29.27326 | 10396 ft | 287 kts | 330° |
| 2026-05-05 16:25 | 40.46920 | 29.25996 | 10072 ft | 274 kts | 330° |
| 2026-05-05 16:25 | 40.50109 | 29.23411 | 9674 ft | 268 kts | 330° |
| 2026-05-05 16:25 | 40.51693 | 29.22127 | 9539 ft | 268 kts | 330° |
| 2026-05-05 16:26 | 40.54873 | 29.19548 | 9048 ft | 268 kts | 330° |
| 2026-05-05 16:26 | 40.58037 | 29.16981 | 8254 ft | 267 kts | 330° |
| 2026-05-05 16:27 | 40.59614 | 29.15696 | 7922 ft | 265 kts | 330° |
| 2026-05-05 16:27 | 40.61167 | 29.14430 | 7583 ft | 262 kts | 329° |
| 2026-05-05 16:27 | 40.62720 | 29.13162 | 7209 ft | 261 kts | 329° |
| 2026-05-05 16:27 | 40.64250 | 29.11914 | 6738 ft | 256 kts | 329° |
| 2026-05-05 16:28 | 40.65758 | 29.10684 | 6100 ft | 254 kts | 329° |
| 2026-05-05 16:28 | 40.67246 | 29.09473 | 5545 ft | 249 kts | 329° |
| 2026-05-05 16:28 | 40.68707 | 29.08284 | 5132 ft | 248 kts | 329° |
| 2026-05-05 16:28 | 40.70179 | 29.07085 | 4696 ft | 249 kts | 329° |
| 2026-05-05 16:29 | 40.71614 | 29.05916 | 4588 ft | 235 kts | 329° |
| 2026-05-05 16:29 | 40.72964 | 29.04815 | 4522 ft | 221 kts | 329° |
| 2026-05-05 16:29 | 40.74292 | 29.03862 | 4441 ft | 215 kts | 340° |
| 2026-05-05 16:29 | 40.75638 | 29.03493 | 4360 ft | 215 kts | 357° |
| 2026-05-05 16:30 | 40.77104 | 29.03723 | 4223 ft | 217 kts | 14° |
| 2026-05-05 16:30 | 40.78475 | 29.04634 | 3997 ft | 216 kts | 35° |
| 2026-05-05 16:30 | 40.79511 | 29.06111 | 4006 ft | 224 kts | 54° |
| 2026-05-05 16:30 | 40.80233 | 29.07958 | 3944 ft | 227 kts | 60° |
| 2026-05-05 16:31 | 40.80909 | 29.09791 | 3723 ft | 224 kts | 60° |
| 2026-05-05 16:31 | 40.81593 | 29.11635 | 3440 ft | 224 kts | 60° |
| 2026-05-05 16:31 | 40.82272 | 29.13465 | 3135 ft | 218 kts | 61° |
| 2026-05-05 16:31 | 40.82911 | 29.15191 | 2856 ft | 208 kts | 61° |
| 2026-05-05 16:32 | 40.83534 | 29.16872 | 2591 ft | 198 kts | 61° |
| 2026-05-05 16:32 | 40.84118 | 29.18450 | 2320 ft | 185 kts | 61° |
| 2026-05-05 16:32 | 40.84663 | 29.19920 | 2073 ft | 172 kts | 62° |
| 2026-05-05 16:32 | 40.85165 | 29.21278 | 1855 ft | 158 kts | 62° |
| 2026-05-05 16:33 | 40.85640 | 29.22559 | 1636 ft | 152 kts | 62° |
| 2026-05-05 16:33 | 40.86100 | 29.23801 | 1426 ft | 150 kts | 63° |
| 2026-05-05 16:33 | 40.86558 | 29.25039 | 1213 ft | 149 kts | 63° |
| 2026-05-05 16:33 | 40.87011 | 29.26266 | 1003 ft | 149 kts | 63° |
| 2026-05-05 16:34 | 40.87464 | 29.27504 | 805 ft | 150 kts | 64° |
| 2026-05-05 16:34 | 40.87916 | 29.28745 | 574 ft | 150 kts | 64° |
| 2026-05-05 16:34 | 40.88383 | 29.29984 | 383 ft | 151 kts | 63° |
| 2026-05-05 16:34 | 40.88826 | 29.31186 | 296 ft | 131 kts | 64° |
| 2026-05-05 16:35 | 40.89052 | 29.31811 | 301 ft | 97 kts | 64° |
| 2026-05-05 16:35 | 40.89256 | 29.32315 | 302 ft | 34 kts | 44° |
| 2026-05-05 16:35 | 40.89385 | 29.32444 | 303 ft | 10 kts | 34° |
| 2026-05-05 16:35 | 40.89439 | 29.32494 | 306 ft | 9 kts | 34° |
| 2026-05-05 16:36 | 40.89464 | 29.32507 | 302 ft | 0 kts | 9° |
| 2026-05-05 16:36 | 40.89466 | 29.32507 | 302 ft | 0 kts | 8° |
| 2026-05-05 16:37 | 40.89498 | 29.32449 | 302 ft | 15 kts | 268° |
| 2026-05-05 16:37 | 40.89550 | 29.32354 | 303 ft | 14 kts | 345° |
| 2026-05-05 16:38 | 40.89668 | 29.32298 | 302 ft | 21 kts | 333° |
| 2026-05-05 16:38 | 40.89797 | 29.32215 | 306 ft | 20 kts | 334° |
| 2026-05-05 16:38 | 40.89917 | 29.32139 | 311 ft | 19 kts | 334° |
| 2026-05-05 16:38 | 40.90040 | 29.32061 | 311 ft | 20 kts | 340° |
| 2026-05-05 16:39 | 40.90127 | 29.32158 | 311 ft | 17 kts | 64° |
| 2026-05-05 16:39 | 40.90179 | 29.32299 | 311 ft | 17 kts | 64° |
| 2026-05-05 16:39 | 40.90228 | 29.32436 | 310 ft | 16 kts | 64° |
| 2026-05-05 16:39 | 40.90282 | 29.32568 | 309 ft | 16 kts | 48° |
| 2026-05-05 16:40 | 40.90371 | 29.32557 | 311 ft | 13 kts | 332° |
| 2026-05-05 16:40 | 40.90440 | 29.32510 | 313 ft | 10 kts | 334° |
| 2026-05-05 16:40 | 40.90510 | 29.32467 | 311 ft | 13 kts | 335° |
| 2026-05-05 16:40 | 40.90579 | 29.32421 | 311 ft | 6 kts | 329° |
| 2026-05-05 16:41 | 40.90598 | 29.32382 | 311 ft | 6 kts | 279° |
| 2026-05-05 16:41 | 40.90559 | 29.32266 | 311 ft | 17 kts | 242° |
| 2026-05-05 16:41 | 40.90502 | 29.32108 | 311 ft | 21 kts | 244° |
| 2026-05-05 16:41 | 40.90436 | 29.31927 | 310 ft | 22 kts | 244° |
| 2026-05-05 16:42 | 40.90366 | 29.31737 | 310 ft | 24 kts | 244° |
| 2026-05-05 16:42 | 40.90302 | 29.31542 | 311 ft | 20 kts | 271° |
| 2026-05-05 16:42 | 40.90409 | 29.31442 | 311 ft | 19 kts | 345° |
| 2026-05-05 16:42 | 40.90477 | 29.31518 | 311 ft | 6 kts | 60° |
| 2026-05-05 16:43 | 40.90469 | 29.31551 | 311 ft | 3 kts | 123° |
| 2026-05-05 16:43 | 40.90455 | 29.31564 | 311 ft | 2 kts | 153° |
| 2026-05-05 16:43 | 40.90440 | 29.31574 | 311 ft | 3 kts | 154° |
| 2026-05-05 16:43 | 40.90417 | 29.31589 | 311 ft | 0 kts | 154° |